sensor_id;sensor_type;location;lat;lon;timestamp;P1;durP1;ratioP1;P2;durP2;ratioP2
23406;SDS011;11876;53.438;18.942;2023-07-22T00:04:23;4.60;;;2.67;;
23406;SDS011;11876;53.438;18.942;2023-07-22T00:09:28;3.85;;;3.03;;
23406;SDS011;11876;53.438;18.942;2023-07-22T00:14:30;5.38;;;2.85;;
23406;SDS011;11876;53.438;18.942;2023-07-22T00:19:33;2.85;;;2.58;;
23406;SDS011;11876;53.438;18.942;2023-07-22T00:24:35;2.58;;;2.38;;
23406;SDS011;11876;53.438;18.942;2023-07-22T00:29:38;3.33;;;2.45;;
23406;SDS011;11876;53.438;18.942;2023-07-22T00:34:40;3.15;;;2.80;;
23406;SDS011;11876;53.438;18.942;2023-07-22T00:39:43;3.80;;;2.50;;
23406;SDS011;11876;53.438;18.942;2023-07-22T00:44:45;3.00;;;2.67;;
23406;SDS011;11876;53.438;18.942;2023-07-22T00:49:48;3.05;;;2.45;;
23406;SDS011;11876;53.438;18.942;2023-07-22T00:54:51;2.63;;;2.42;;
23406;SDS011;11876;53.438;18.942;2023-07-22T00:59:54;3.75;;;2.65;;
23406;SDS011;11876;53.438;18.942;2023-07-22T01:04:57;3.53;;;2.88;;
23406;SDS011;11876;53.438;18.942;2023-07-22T01:09:59;4.13;;;2.80;;
23406;SDS011;11876;53.438;18.942;2023-07-22T01:15:02;4.90;;;2.67;;
23406;SDS011;11876;53.438;18.942;2023-07-22T01:20:09;3.03;;;2.63;;
23406;SDS011;11876;53.438;18.942;2023-07-22T01:25:12;3.70;;;2.78;;
23406;SDS011;11876;53.438;18.942;2023-07-22T01:30:15;2.80;;;2.42;;
23406;SDS011;11876;53.438;18.942;2023-07-22T01:35:17;2.50;;;2.30;;
23406;SDS011;11876;53.438;18.942;2023-07-22T01:40:20;4.05;;;2.50;;
23406;SDS011;11876;53.438;18.942;2023-07-22T01:45:25;3.03;;;2.17;;
23406;SDS011;11876;53.438;18.942;2023-07-22T01:50:27;2.78;;;2.50;;
23406;SDS011;11876;53.438;18.942;2023-07-22T01:55:30;3.72;;;2.47;;
23406;SDS011;11876;53.438;18.942;2023-07-22T02:00:33;4.25;;;2.90;;
23406;SDS011;11876;53.438;18.942;2023-07-22T02:05:36;3.30;;;2.65;;
23406;SDS011;11876;53.438;18.942;2023-07-22T02:10:38;6.55;;;2.75;;
23406;SDS011;11876;53.438;18.942;2023-07-22T02:15:41;2.70;;;2.50;;
23406;SDS011;11876;53.438;18.942;2023-07-22T02:20:43;2.78;;;2.38;;
23406;SDS011;11876;53.438;18.942;2023-07-22T02:25:52;4.55;;;2.60;;
23406;SDS011;11876;53.438;18.942;2023-07-22T02:30:55;4.68;;;2.88;;
23406;SDS011;11876;53.438;18.942;2023-07-22T02:35:57;2.78;;;2.20;;
23406;SDS011;11876;53.438;18.942;2023-07-22T02:41:03;3.53;;;2.60;;
23406;SDS011;11876;53.438;18.942;2023-07-22T02:46:09;3.67;;;2.40;;
23406;SDS011;11876;53.438;18.942;2023-07-22T02:51:12;3.38;;;2.58;;
23406;SDS011;11876;53.438;18.942;2023-07-22T02:56:14;3.22;;;2.53;;
23406;SDS011;11876;53.438;18.942;2023-07-22T03:01:17;3.22;;;2.47;;
23406;SDS011;11876;53.438;18.942;2023-07-22T03:06:20;4.60;;;2.63;;
23406;SDS011;11876;53.438;18.942;2023-07-22T03:11:23;3.45;;;2.40;;
23406;SDS011;11876;53.438;18.942;2023-07-22T03:16:26;3.90;;;3.60;;
23406;SDS011;11876;53.438;18.942;2023-07-22T03:21:29;2.58;;;2.30;;
23406;SDS011;11876;53.438;18.942;2023-07-22T03:26:32;4.53;;;2.10;;
23406;SDS011;11876;53.438;18.942;2023-07-22T03:31:34;2.35;;;2.08;;
23406;SDS011;11876;53.438;18.942;2023-07-22T03:36:37;3.65;;;2.10;;
23406;SDS011;11876;53.438;18.942;2023-07-22T03:41:39;2.97;;;2.45;;
23406;SDS011;11876;53.438;18.942;2023-07-22T03:46:42;3.45;;;2.47;;
23406;SDS011;11876;53.438;18.942;2023-07-22T03:51:45;2.85;;;2.50;;
23406;SDS011;11876;53.438;18.942;2023-07-22T03:56:47;5.78;;;2.83;;
23406;SDS011;11876;53.438;18.942;2023-07-22T04:01:49;5.18;;;3.40;;
23406;SDS011;11876;53.438;18.942;2023-07-22T04:06:52;3.50;;;2.70;;
23406;SDS011;11876;53.438;18.942;2023-07-22T04:11:54;2.70;;;2.40;;
23406;SDS011;11876;53.438;18.942;2023-07-22T04:16:57;2.40;;;2.20;;
23406;SDS011;11876;53.438;18.942;2023-07-22T04:21:59;3.85;;;2.30;;
23406;SDS011;11876;53.438;18.942;2023-07-22T04:27:05;2.88;;;2.20;;
23406;SDS011;11876;53.438;18.942;2023-07-22T04:32:08;1.83;;;1.73;;
23406;SDS011;11876;53.438;18.942;2023-07-22T04:37:10;3.58;;;1.90;;
23406;SDS011;11876;53.438;18.942;2023-07-22T04:42:14;2.38;;;2.15;;
23406;SDS011;11876;53.438;18.942;2023-07-22T04:47:16;2.50;;;1.80;;
23406;SDS011;11876;53.438;18.942;2023-07-22T04:52:19;2.30;;;2.10;;
23406;SDS011;11876;53.438;18.942;2023-07-22T04:57:22;2.97;;;2.25;;
23406;SDS011;11876;53.438;18.942;2023-07-22T05:02:24;3.20;;;1.95;;
23406;SDS011;11876;53.438;18.942;2023-07-22T05:07:27;3.92;;;2.20;;
23406;SDS011;11876;53.438;18.942;2023-07-22T05:12:31;4.00;;;1.95;;
23406;SDS011;11876;53.438;18.942;2023-07-22T05:17:34;2.92;;;2.03;;
23406;SDS011;11876;53.438;18.942;2023-07-22T05:22:37;2.35;;;2.00;;
23406;SDS011;11876;53.438;18.942;2023-07-22T05:27:39;3.47;;;2.08;;
23406;SDS011;11876;53.438;18.942;2023-07-22T05:32:42;2.03;;;1.70;;
23406;SDS011;11876;53.438;18.942;2023-07-22T05:37:45;3.17;;;1.80;;
23406;SDS011;11876;53.438;18.942;2023-07-22T05:42:47;5.35;;;2.45;;
23406;SDS011;11876;53.438;18.942;2023-07-22T05:47:49;3.75;;;1.55;;
23406;SDS011;11876;53.438;18.942;2023-07-22T05:52:52;2.35;;;1.75;;
23406;SDS011;11876;53.438;18.942;2023-07-22T05:57:54;2.20;;;1.85;;
23406;SDS011;11876;53.438;18.942;2023-07-22T06:02:57;3.75;;;1.95;;
23406;SDS011;11876;53.438;18.942;2023-07-22T06:07:59;2.13;;;1.95;;
23406;SDS011;11876;53.438;18.942;2023-07-22T06:13:02;4.03;;;2.30;;
23406;SDS011;11876;53.438;18.942;2023-07-22T06:18:04;3.15;;;2.20;;
23406;SDS011;11876;53.438;18.942;2023-07-22T06:23:10;2.72;;;2.13;;
23406;SDS011;11876;53.438;18.942;2023-07-22T06:28:12;3.95;;;2.13;;
23406;SDS011;11876;53.438;18.942;2023-07-22T06:33:15;2.65;;;2.35;;
23406;SDS011;11876;53.438;18.942;2023-07-22T06:38:17;3.90;;;1.98;;
23406;SDS011;11876;53.438;18.942;2023-07-22T06:43:20;2.33;;;1.67;;
23406;SDS011;11876;53.438;18.942;2023-07-22T06:48:23;2.28;;;1.70;;
23406;SDS011;11876;53.438;18.942;2023-07-22T06:53:25;2.92;;;1.95;;
23406;SDS011;11876;53.438;18.942;2023-07-22T06:58:28;2.95;;;2.05;;
23406;SDS011;11876;53.438;18.942;2023-07-22T07:03:30;5.30;;;2.55;;
23406;SDS011;11876;53.438;18.942;2023-07-22T07:08:33;2.75;;;1.73;;
23406;SDS011;11876;53.438;18.942;2023-07-22T07:13:35;2.50;;;2.10;;
23406;SDS011;11876;53.438;18.942;2023-07-22T07:18:37;2.40;;;1.88;;
23406;SDS011;11876;53.438;18.942;2023-07-22T07:23:40;3.58;;;2.05;;
23406;SDS011;11876;53.438;18.942;2023-07-22T07:28:42;2.67;;;1.77;;
23406;SDS011;11876;53.438;18.942;2023-07-22T07:33:45;3.65;;;1.92;;
23406;SDS011;11876;53.438;18.942;2023-07-22T07:38:47;2.80;;;1.65;;
23406;SDS011;11876;53.438;18.942;2023-07-22T07:43:50;3.85;;;2.22;;
23406;SDS011;11876;53.438;18.942;2023-07-22T07:48:53;1.92;;;1.83;;
23406;SDS011;11876;53.438;18.942;2023-07-22T07:54:00;2.20;;;2.00;;
23406;SDS011;11876;53.438;18.942;2023-07-22T07:59:05;2.28;;;1.67;;
23406;SDS011;11876;53.438;18.942;2023-07-22T08:04:10;4.38;;;2.08;;
23406;SDS011;11876;53.438;18.942;2023-07-22T08:09:12;1.80;;;1.70;;
23406;SDS011;11876;53.438;18.942;2023-07-22T08:14:20;2.88;;;1.58;;
23406;SDS011;11876;53.438;18.942;2023-07-22T08:19:24;2.65;;;1.50;;
23406;SDS011;11876;53.438;18.942;2023-07-22T08:24:26;1.85;;;1.70;;
23406;SDS011;11876;53.438;18.942;2023-07-22T08:29:28;2.17;;;1.80;;
23406;SDS011;11876;53.438;18.942;2023-07-22T08:34:31;2.30;;;2.10;;
23406;SDS011;11876;53.438;18.942;2023-07-22T08:39:33;2.65;;;1.75;;
23406;SDS011;11876;53.438;18.942;2023-07-22T08:44:36;2.00;;;1.90;;
23406;SDS011;11876;53.438;18.942;2023-07-22T08:49:40;1.83;;;1.48;;
23406;SDS011;11876;53.438;18.942;2023-07-22T08:54:45;1.55;;;1.45;;
23406;SDS011;11876;53.438;18.942;2023-07-22T08:59:48;1.85;;;1.63;;
23406;SDS011;11876;53.438;18.942;2023-07-22T09:04:51;2.25;;;2.05;;
23406;SDS011;11876;53.438;18.942;2023-07-22T09:09:53;1.80;;;1.70;;
23406;SDS011;11876;53.438;18.942;2023-07-22T09:14:57;2.63;;;1.92;;
23406;SDS011;11876;53.438;18.942;2023-07-22T09:19:59;5.30;;;1.67;;
23406;SDS011;11876;53.438;18.942;2023-07-22T09:25:23;2.25;;;1.63;;
23406;SDS011;11876;53.438;18.942;2023-07-22T09:30:29;1.50;;;1.40;;
23406;SDS011;11876;53.438;18.942;2023-07-22T09:40:43;1.95;;;1.50;;
23406;SDS011;11876;53.438;18.942;2023-07-22T09:45:48;8.50;;;1.65;;
23406;SDS011;11876;53.438;18.942;2023-07-22T09:50:57;2.17;;;1.40;;
23406;SDS011;11876;53.438;18.942;2023-07-22T09:56:03;5.70;;;1.30;;
23406;SDS011;11876;53.438;18.942;2023-07-22T10:01:06;1.67;;;1.38;;
23406;SDS011;11876;53.438;18.942;2023-07-22T10:06:10;2.80;;;1.25;;
23406;SDS011;11876;53.438;18.942;2023-07-22T10:11:12;6.43;;;1.60;;
23406;SDS011;11876;53.438;18.942;2023-07-22T10:16:15;4.88;;;2.13;;
23406;SDS011;11876;53.438;18.942;2023-07-22T10:21:18;4.43;;;1.83;;
23406;SDS011;11876;53.438;18.942;2023-07-22T10:26:21;2.08;;;1.48;;
23406;SDS011;11876;53.438;18.942;2023-07-22T10:31:43;3.00;;;1.70;;
23406;SDS011;11876;53.438;18.942;2023-07-22T10:36:47;6.82;;;2.47;;
23406;SDS011;11876;53.438;18.942;2023-07-22T10:41:49;2.88;;;2.33;;
23406;SDS011;11876;53.438;18.942;2023-07-22T10:46:58;6.30;;;2.40;;
23406;SDS011;11876;53.438;18.942;2023-07-22T10:52:01;9.18;;;2.60;;
23406;SDS011;11876;53.438;18.942;2023-07-22T10:57:25;7.35;;;2.63;;
23406;SDS011;11876;53.438;18.942;2023-07-22T11:02:28;3.67;;;3.00;;
23406;SDS011;11876;53.438;18.942;2023-07-22T11:07:42;9.27;;;2.97;;
23406;SDS011;11876;53.438;18.942;2023-07-22T11:12:46;10.05;;;3.10;;
23406;SDS011;11876;53.438;18.942;2023-07-22T11:17:50;4.00;;;2.50;;
23406;SDS011;11876;53.438;18.942;2023-07-22T11:22:52;3.72;;;2.75;;
23406;SDS011;11876;53.438;18.942;2023-07-22T11:27:55;3.40;;;3.15;;
23406;SDS011;11876;53.438;18.942;2023-07-22T11:32:58;3.80;;;3.40;;
23406;SDS011;11876;53.438;18.942;2023-07-22T11:38:01;3.33;;;3.03;;
23406;SDS011;11876;53.438;18.942;2023-07-22T11:43:05;6.30;;;3.30;;
23406;SDS011;11876;53.438;18.942;2023-07-22T11:48:10;4.50;;;3.17;;
23406;SDS011;11876;53.438;18.942;2023-07-22T11:53:14;2.47;;;2.27;;
23406;SDS011;11876;53.438;18.942;2023-07-22T11:58:23;3.15;;;2.78;;
23406;SDS011;11876;53.438;18.942;2023-07-22T12:03:32;3.22;;;2.83;;
23406;SDS011;11876;53.438;18.942;2023-07-22T12:08:36;1.67;;;1.58;;
23406;SDS011;11876;53.438;18.942;2023-07-22T12:13:39;1.77;;;1.67;;
23406;SDS011;11876;53.438;18.942;2023-07-22T12:18:44;1.63;;;1.50;;
23406;SDS011;11876;53.438;18.942;2023-07-22T12:23:47;3.35;;;1.30;;
23406;SDS011;11876;53.438;18.942;2023-07-22T12:28:50;1.77;;;1.42;;
23406;SDS011;11876;53.438;18.942;2023-07-22T12:33:52;3.42;;;1.30;;
23406;SDS011;11876;53.438;18.942;2023-07-22T12:38:54;2.58;;;1.42;;
23406;SDS011;11876;53.438;18.942;2023-07-22T12:43:59;1.52;;;1.42;;
23406;SDS011;11876;53.438;18.942;2023-07-22T12:49:02;1.60;;;1.50;;
23406;SDS011;11876;53.438;18.942;2023-07-22T12:54:04;1.90;;;1.75;;
23406;SDS011;11876;53.438;18.942;2023-07-22T12:59:07;2.55;;;1.77;;
23406;SDS011;11876;53.438;18.942;2023-07-22T13:04:09;1.98;;;1.52;;
23406;SDS011;11876;53.438;18.942;2023-07-22T13:09:11;2.80;;;1.58;;
23406;SDS011;11876;53.438;18.942;2023-07-22T13:14:14;3.58;;;1.50;;
23406;SDS011;11876;53.438;18.942;2023-07-22T13:19:19;1.70;;;1.58;;
23406;SDS011;11876;53.438;18.942;2023-07-22T13:24:21;1.38;;;1.25;;
23406;SDS011;11876;53.438;18.942;2023-07-22T13:29:24;1.65;;;1.33;;
23406;SDS011;11876;53.438;18.942;2023-07-22T13:34:26;1.73;;;1.40;;
23406;SDS011;11876;53.438;18.942;2023-07-22T13:39:29;1.48;;;1.38;;
23406;SDS011;11876;53.438;18.942;2023-07-22T13:44:31;4.10;;;1.38;;
23406;SDS011;11876;53.438;18.942;2023-07-22T13:49:33;1.70;;;1.13;;
23406;SDS011;11876;53.438;18.942;2023-07-22T13:54:36;2.65;;;1.70;;
23406;SDS011;11876;53.438;18.942;2023-07-22T13:59:38;3.15;;;1.27;;
23406;SDS011;11876;53.438;18.942;2023-07-22T14:04:40;4.63;;;1.67;;
23406;SDS011;11876;53.438;18.942;2023-07-22T14:09:43;2.10;;;1.45;;
23406;SDS011;11876;53.438;18.942;2023-07-22T14:14:45;4.10;;;1.40;;
23406;SDS011;11876;53.438;18.942;2023-07-22T14:19:48;1.73;;;1.60;;
23406;SDS011;11876;53.438;18.942;2023-07-22T14:24:51;3.45;;;1.58;;
23406;SDS011;11876;53.438;18.942;2023-07-22T14:29:53;2.25;;;1.50;;
23406;SDS011;11876;53.438;18.942;2023-07-22T14:34:55;3.15;;;1.63;;
23406;SDS011;11876;53.438;18.942;2023-07-22T14:39:58;1.95;;;1.75;;
23406;SDS011;11876;53.438;18.942;2023-07-22T14:45:00;4.28;;;2.00;;
23406;SDS011;11876;53.438;18.942;2023-07-22T14:50:03;4.78;;;1.90;;
23406;SDS011;11876;53.438;18.942;2023-07-22T14:55:05;2.95;;;1.70;;
23406;SDS011;11876;53.438;18.942;2023-07-22T15:00:08;14.88;;;2.20;;
23406;SDS011;11876;53.438;18.942;2023-07-22T15:05:12;3.95;;;1.70;;
23406;SDS011;11876;53.438;18.942;2023-07-22T15:10:14;2.30;;;2.10;;
23406;SDS011;11876;53.438;18.942;2023-07-22T15:15:17;2.95;;;1.80;;
23406;SDS011;11876;53.438;18.942;2023-07-22T15:20:19;2.30;;;2.10;;
23406;SDS011;11876;53.438;18.942;2023-07-22T15:25:22;3.55;;;2.20;;
23406;SDS011;11876;53.438;18.942;2023-07-22T15:30:24;2.97;;;1.88;;
23406;SDS011;11876;53.438;18.942;2023-07-22T15:35:26;2.95;;;1.98;;
23406;SDS011;11876;53.438;18.942;2023-07-22T15:40:29;5.57;;;2.17;;
23406;SDS011;11876;53.438;18.942;2023-07-22T15:45:32;3.47;;;2.42;;
23406;SDS011;11876;53.438;18.942;2023-07-22T15:50:34;4.32;;;1.88;;
23406;SDS011;11876;53.438;18.942;2023-07-22T15:55:37;7.38;;;2.13;;
23406;SDS011;11876;53.438;18.942;2023-07-22T16:00:39;5.95;;;2.33;;
23406;SDS011;11876;53.438;18.942;2023-07-22T16:05:42;4.22;;;2.25;;
23406;SDS011;11876;53.438;18.942;2023-07-22T16:10:45;31.15;;;3.95;;
23406;SDS011;11876;53.438;18.942;2023-07-22T16:15:47;2.25;;;1.50;;
23406;SDS011;11876;53.438;18.942;2023-07-22T16:20:50;2.25;;;1.60;;
23406;SDS011;11876;53.438;18.942;2023-07-22T16:25:52;3.90;;;1.83;;
23406;SDS011;11876;53.438;18.942;2023-07-22T16:30:55;4.05;;;1.83;;
23406;SDS011;11876;53.438;18.942;2023-07-22T16:35:57;2.72;;;2.28;;
23406;SDS011;11876;53.438;18.942;2023-07-22T16:41:01;3.55;;;1.95;;
23406;SDS011;11876;53.438;18.942;2023-07-22T16:46:03;2.45;;;1.75;;
23406;SDS011;11876;53.438;18.942;2023-07-22T16:51:06;6.53;;;2.03;;
23406;SDS011;11876;53.438;18.942;2023-07-22T16:56:08;3.95;;;2.13;;
23406;SDS011;11876;53.438;18.942;2023-07-22T17:01:11;16.40;;;3.15;;
23406;SDS011;11876;53.438;18.942;2023-07-22T17:06:14;8.07;;;2.72;;
23406;SDS011;11876;53.438;18.942;2023-07-22T17:11:16;3.00;;;2.22;;
23406;SDS011;11876;53.438;18.942;2023-07-22T17:16:20;4.10;;;1.75;;
23406;SDS011;11876;53.438;18.942;2023-07-22T17:21:23;3.67;;;2.20;;
23406;SDS011;11876;53.438;18.942;2023-07-22T17:26:26;3.00;;;2.35;;
23406;SDS011;11876;53.438;18.942;2023-07-22T17:31:28;6.75;;;3.58;;
23406;SDS011;11876;53.438;18.942;2023-07-22T17:36:31;7.35;;;3.53;;
23406;SDS011;11876;53.438;18.942;2023-07-22T17:41:33;2.78;;;2.13;;
23406;SDS011;11876;53.438;18.942;2023-07-22T17:46:36;5.63;;;2.75;;
23406;SDS011;11876;53.438;18.942;2023-07-22T17:51:40;5.32;;;3.47;;
23406;SDS011;11876;53.438;18.942;2023-07-22T17:56:43;3.85;;;3.00;;
23406;SDS011;11876;53.438;18.942;2023-07-22T18:01:46;8.20;;;3.85;;
23406;SDS011;11876;53.438;18.942;2023-07-22T18:06:48;12.45;;;3.85;;
23406;SDS011;11876;53.438;18.942;2023-07-22T18:11:52;7.15;;;3.80;;
23406;SDS011;11876;53.438;18.942;2023-07-22T18:16:54;4.85;;;3.72;;
23406;SDS011;11876;53.438;18.942;2023-07-22T18:21:57;2.70;;;2.50;;
23406;SDS011;11876;53.438;18.942;2023-07-22T18:26:59;5.20;;;3.20;;
23406;SDS011;11876;53.438;18.942;2023-07-22T18:32:02;11.13;;;9.63;;
23406;SDS011;11876;53.438;18.942;2023-07-22T18:37:04;9.30;;;7.25;;
23406;SDS011;11876;53.438;18.942;2023-07-22T18:42:07;8.30;;;6.70;;
23406;SDS011;11876;53.438;18.942;2023-07-22T18:47:10;7.55;;;6.18;;
23406;SDS011;11876;53.438;18.942;2023-07-22T18:52:12;6.80;;;5.25;;
23406;SDS011;11876;53.438;18.942;2023-07-22T18:57:15;5.80;;;4.90;;
23406;SDS011;11876;53.438;18.942;2023-07-22T19:02:17;5.95;;;3.92;;
23406;SDS011;11876;53.438;18.942;2023-07-22T19:07:20;4.95;;;4.00;;
23406;SDS011;11876;53.438;18.942;2023-07-22T19:12:22;9.30;;;6.05;;
23406;SDS011;11876;53.438;18.942;2023-07-22T19:17:26;4.82;;;4.32;;
23406;SDS011;11876;53.438;18.942;2023-07-22T19:22:28;6.00;;;3.72;;
23406;SDS011;11876;53.438;18.942;2023-07-22T19:27:30;7.38;;;4.28;;
23406;SDS011;11876;53.438;18.942;2023-07-22T19:32:33;6.80;;;4.15;;
23406;SDS011;11876;53.438;18.942;2023-07-22T19:37:35;7.75;;;3.70;;
23406;SDS011;11876;53.438;18.942;2023-07-22T19:42:41;6.50;;;4.05;;
23406;SDS011;11876;53.438;18.942;2023-07-22T19:47:43;4.97;;;4.47;;
23406;SDS011;11876;53.438;18.942;2023-07-22T19:52:46;5.53;;;4.22;;
23406;SDS011;11876;53.438;18.942;2023-07-22T19:57:49;6.40;;;4.30;;
23406;SDS011;11876;53.438;18.942;2023-07-22T20:02:51;5.05;;;4.13;;
23406;SDS011;11876;53.438;18.942;2023-07-22T20:07:54;5.60;;;4.13;;
23406;SDS011;11876;53.438;18.942;2023-07-22T20:12:56;4.07;;;3.47;;
23406;SDS011;11876;53.438;18.942;2023-07-22T20:17:59;6.13;;;4.25;;
23406;SDS011;11876;53.438;18.942;2023-07-22T20:23:01;12.15;;;9.32;;
23406;SDS011;11876;53.438;18.942;2023-07-22T20:28:03;6.72;;;4.40;;
23406;SDS011;11876;53.438;18.942;2023-07-22T20:33:07;4.40;;;4.00;;
23406;SDS011;11876;53.438;18.942;2023-07-22T20:38:09;4.82;;;3.80;;
23406;SDS011;11876;53.438;18.942;2023-07-22T20:43:12;5.30;;;3.30;;
23406;SDS011;11876;53.438;18.942;2023-07-22T20:48:14;7.80;;;3.58;;
23406;SDS011;11876;53.438;18.942;2023-07-22T20:53:17;4.45;;;3.70;;
23406;SDS011;11876;53.438;18.942;2023-07-22T20:58:19;7.30;;;3.22;;
23406;SDS011;11876;53.438;18.942;2023-07-22T21:03:21;4.65;;;3.72;;
23406;SDS011;11876;53.438;18.942;2023-07-22T21:08:24;6.32;;;4.75;;
23406;SDS011;11876;53.438;18.942;2023-07-22T21:13:27;5.80;;;4.45;;
23406;SDS011;11876;53.438;18.942;2023-07-22T21:18:29;4.95;;;3.78;;
23406;SDS011;11876;53.438;18.942;2023-07-22T21:23:33;4.90;;;3.55;;
23406;SDS011;11876;53.438;18.942;2023-07-22T21:28:36;4.22;;;3.83;;
23406;SDS011;11876;53.438;18.942;2023-07-22T21:33:38;4.20;;;3.75;;
23406;SDS011;11876;53.438;18.942;2023-07-22T21:38:40;5.35;;;3.75;;
23406;SDS011;11876;53.438;18.942;2023-07-22T21:43:43;4.90;;;3.90;;
23406;SDS011;11876;53.438;18.942;2023-07-22T21:48:45;4.57;;;4.15;;
23406;SDS011;11876;53.438;18.942;2023-07-22T21:53:48;6.35;;;4.68;;
23406;SDS011;11876;53.438;18.942;2023-07-22T21:58:51;6.05;;;4.93;;
23406;SDS011;11876;53.438;18.942;2023-07-22T22:03:53;6.30;;;4.13;;
23406;SDS011;11876;53.438;18.942;2023-07-22T22:08:56;8.55;;;4.47;;
23406;SDS011;11876;53.438;18.942;2023-07-22T22:13:58;5.65;;;4.68;;
23406;SDS011;11876;53.438;18.942;2023-07-22T22:19:00;8.30;;;5.55;;
23406;SDS011;11876;53.438;18.942;2023-07-22T22:24:04;6.85;;;5.38;;
23406;SDS011;11876;53.438;18.942;2023-07-22T22:29:07;7.30;;;5.13;;
23406;SDS011;11876;53.438;18.942;2023-07-22T22:34:09;10.93;;;5.97;;
23406;SDS011;11876;53.438;18.942;2023-07-22T22:39:11;7.22;;;4.68;;
23406;SDS011;11876;53.438;18.942;2023-07-22T22:44:14;7.35;;;4.72;;
23406;SDS011;11876;53.438;18.942;2023-07-22T22:49:16;6.25;;;4.80;;
23406;SDS011;11876;53.438;18.942;2023-07-22T22:54:18;7.30;;;4.57;;
23406;SDS011;11876;53.438;18.942;2023-07-22T22:59:21;4.05;;;3.40;;
23406;SDS011;11876;53.438;18.942;2023-07-22T23:04:23;4.10;;;3.65;;
23406;SDS011;11876;53.438;18.942;2023-07-22T23:09:26;4.95;;;3.70;;
23406;SDS011;11876;53.438;18.942;2023-07-22T23:14:28;4.50;;;3.60;;
23406;SDS011;11876;53.438;18.942;2023-07-22T23:19:33;6.10;;;3.92;;
23406;SDS011;11876;53.438;18.942;2023-07-22T23:24:35;4.20;;;3.75;;
23406;SDS011;11876;53.438;18.942;2023-07-22T23:29:38;3.72;;;3.28;;
23406;SDS011;11876;53.438;18.942;2023-07-22T23:34:41;3.42;;;3.13;;
23406;SDS011;11876;53.438;18.942;2023-07-22T23:39:43;4.35;;;3.80;;
23406;SDS011;11876;53.438;18.942;2023-07-22T23:44:45;5.18;;;4.35;;
23406;SDS011;11876;53.438;18.942;2023-07-22T23:49:48;6.47;;;4.20;;
23406;SDS011;11876;53.438;18.942;2023-07-22T23:54:50;6.13;;;4.43;;
23406;SDS011;11876;53.438;18.942;2023-07-22T23:59:53;5.28;;;4.47;;
